Date,TemperatureHighF,TemperatureAvgF,TemperatureLowF,DewpointHighF,DewpointAvgF,DewpointLowF,HumidityHigh,HumidityAvg,HumidityLow,PressureMaxIn,PressureMinIn,WindSpeedMaxMPH,WindSpeedAvgMPH,GustSpeedMaxMPH,PrecipitationSumIn
2013-1-1,50,43,38,42,35,29,78,73,67,30.37,30.11,15,5,15,0.00
2013-1-2,44,40,36,32,29,27,70,65,61,30.43,30.33,12,3,12,0.00
2013-1-3,51,45,36,34,30,26,68,56,47,30.54,30.39,17,3,17,0.00
2013-1-4,54,50,46,35,33,30,55,51,48,30.60,30.43,8,2,8,0.00
2013-1-5,55,50,46,40,37,33,64,59,50,30.43,30.29,13,3,13,0.00
2013-1-6,56,49,40,35,31,28,66,51,38,30.47,30.36,12,3,12,0.00
2013-1-7,58,51,42,38,33,25,54,49,46,30.41,30.17,13,3,13,0.00
2013-1-8,53,52,50,45,40,34,81,66,49,30.18,30.04,13,4,13,0.99
2013-1-9,59,56,51,52,50,45,84,81,79,30.22,30.01,26,8,26,1.43
2013-1-10,61,58,54,54,49,44,82,72,62,30.08,29.99,50,6,50,0.04
2013-1-11,69,60,52,58,49,42,75,67,58,30.04,29.86,24,6,24,0.00
2013-1-12,69,57,38,64,50,31,83,78,72,30.02,29.74,23,6,23,0.78
2013-1-13,42,37,34,31,25,20,75,61,51,30.36,30.01,22,8,22,0.00
2013-1-14,47,40,31,30,25,19,61,54,49,30.42,30.29,17,6,17,0.00
2013-1-15,40,38,33,29,26,22,72,63,52,30.32,30.22,19,6,20,0.08
2013-1-16,49,41,33,29,24,20,61,50,41,30.38,30.24,12,3,12,0.00
2013-1-17,58,50,40,36,31,24,59,48,40,30.58,30.31,14,4,14,0.00
2013-1-18,62,53,44,40,34,29,57,50,44,30.59,30.34,16,4,16,0.00
2013-1-19,64,54,49,48,39,34,64,57,49,30.35,30.22,16,5,16,0.00
2013-1-20,68,58,48,49,42,35,66,57,49,30.30,30.14,12,2,12,0.00
2013-1-21,58,52,42,41,34,26,67,52,46,30.38,30.20,18,4,18,0.00
2013-1-22,64,56,45,47,39,26,58,53,46,30.39,30.25,13,4,13,0.00
2013-1-23,72,63,54,56,50,43,71,62,57,30.35,30.20,20,5,20,0.00
2013-1-24,75,67,59,61,56,50,75,67,59,30.27,30.10,15,4,15,0.00
2013-1-25,67,54,51,56,44,38,77,67,61,30.28,30.10,13,4,13,0.00
2013-1-26,56,54,49,47,45,38,75,72,62,30.30,30.18,14,4,14,0.00
2013-1-27,72,64,54,61,56,46,82,73,64,30.18,30.00,23,7,23,0.00
2013-1-28,76,72,69,65,62,61,77,72,64,30.09,29.93,24,9,24,0.00
2013-1-29,76,68,58,65,58,37,76,70,46,29.93,29.53,25,9,28,0.26
2013-1-30,58,49,44,38,29,24,62,47,36,30.22,29.77,27,9,27,0.00
2013-1-31,67,55,44,36,30,25,50,40,28,30.40,30.16,24,6,24,0.00
2013-2-1,61,51,37,38,30,18,49,46,43,30.48,30.24,19,5,21,0.00
2013-2-2,67,59,52,44,39,35,63,48,35,30.39,30.22,17,4,17,0.00
2013-2-3,68,59,50,40,36,32,52,42,35,30.39,30.07,14,3,14,0.00
2013-2-4,71,64,59,55,48,34,64,55,37,30.07,29.88,18,6,18,0.00
2013-2-5,66,63,60,58,55,50,76,74,63,30.10,29.96,11,4,11,0.00
2013-2-6,63,61,61,55,53,52,77,74,72,30.09,30.05,9,3,9,0.00
2013-2-9,60,56,53,53,46,41,79,68,62,30.18,29.83,21,9,21,0.00
2013-2-10,66,61,56,59,39,32,84,47,30,30.10,29.74,44,5,44,0.86
2013-2-11,58,56,53,39,36,32,56,48,43,30.23,30.08,24,6,24,0.00
2013-2-12,54,51,44,44,42,38,79,71,56,30.12,29.93,19,5,19,0.29
2013-2-13,58,50,40,41,37,33,78,63,49,30.24,30.10,17,4,17,0.00
2013-2-14,68,58,47,44,40,34,63,51,41,30.19,30.07,13,3,13,0.00
2013-2-15,58,50,46,38,29,22,59,45,33,30.46,30.17,20,6,20,0.00
2013-2-16,58,50,42,33,28,23,50,44,38,30.49,30.25,10,3,10,0.00
2013-2-17,69,59,47,43,36,28,53,43,33,30.25,30.00,27,8,27,0.00
2013-2-18,76,64,54,56,44,31,69,50,33,30.20,29.83,28,11,28,0.00
2013-2-19,64,56,49,35,32,30,47,40,33,30.41,30.19,17,7,19,0.00
2013-2-20,57,51,48,39,36,34,63,57,42,30.27,29.88,24,10,24,0.12
2013-2-21,66,56,48,48,39,34,77,55,31,30.01,29.69,24,8,24,0.08
2013-2-22,51,44,35,36,27,22,65,51,44,30.23,30.00,15,5,15,0.00
2013-2-23,58,48,38,38,29,23,55,48,40,30.17,30.00,12,3,12,0.00
2013-2-24,70,59,46,46,39,29,59,48,40,30.02,29.69,22,7,22,0.00
2013-2-25,61,55,41,48,37,30,68,53,38,29.74,29.53,36,11,36,0.00
2013-2-26,57,49,41,35,32,30,68,55,42,29.99,29.73,27,8,27,0.00
2013-2-27,52,47,41,33,30,28,64,53,39,30.20,29.97,18,5,18,0.00
2013-3-10,52,50,47,37,33,30,55,52,49,30.17,30.02,26,9,26,0.00
2013-3-11,59,50,40,31,28,23,62,44,30,30.20,30.08,18,5,18,0.00
2013-3-12,68,58,48,38,32,27,48,39,31,30.38,30.11,50,4,50,0.00
2013-3-13,72,62,52,43,37,32,50,41,34,30.53,30.38,50,4,50,0.00
2013-3-14,78,66,55,50,42,33,49,41,37,30.43,30.24,22,6,22,0.00
2013-3-15,81,71,60,54,49,44,64,46,32,30.25,29.97,28,8,50,0.00
2013-3-16,82,72,62,60,54,47,67,53,43,29.97,29.77,34,10,34,0.00
2013-3-17,74,71,68,60,55,49,66,58,48,29.87,29.75,25,6,25,0.00
2013-3-18,70,66,61,60,49,40,78,55,43,30.09,29.72,22,6,22,0.00
2013-3-19,70,63,55,46,41,36,55,45,37,30.20,30.04,23,7,23,0.00
2013-3-20,70,63,54,39,36,33,49,38,30,30.38,30.11,21,4,21,0.00
2013-3-21,69,64,57,53,43,33,60,46,37,30.12,29.66,24,9,25,0.00
2013-3-22,68,55,50,57,45,42,77,69,56,29.94,29.66,20,6,20,0.00
2013-3-23,57,54,50,48,46,43,78,74,70,29.97,29.75,17,4,17,0.06
2013-3-24,53,47,40,46,30,22,80,55,38,30.26,29.88,25,10,27,0.04
2013-3-25,53,46,38,25,22,19,52,39,28,30.48,30.25,22,6,22,0.00
2013-3-26,63,51,43,34,25,20,43,37,31,30.59,30.38,12,3,12,0.00
2013-3-27,72,60,48,43,35,25,45,39,35,30.40,30.17,23,7,25,0.00
2013-3-28,72,66,57,55,49,40,61,55,42,30.30,30.16,23,7,23,0.00
2013-3-29,77,70,64,59,56,52,67,60,53,30.27,30.09,22,7,22,0.00
2013-3-30,77,73,62,63,60,52,76,64,60,30.18,29.97,22,6,22,0.98
2013-3-31,74,69,62,61,56,51,78,64,52,30.07,29.88,22,5,22,0.14
2013-4-1,80,71,60,56,52,47,63,52,43,30.15,30.02,13,3,13,0.00
2013-4-2,72,69,60,60,55,44,71,63,51,30.10,29.97,30,7,30,0.00
2013-4-3,60,58,54,46,45,44,71,63,57,30.13,30.03,43,6,43,0.27
2013-4-12,74,63,53,49,45,39,61,52,41,30.08,29.97,8,3,10,0.00
2013-4-13,78,76,71,53,51,48,45,41,38,29.98,29.86,22,6,22,0.00
2013-4-14,81,73,63,64,56,47,67,57,45,29.87,29.64,22,7,22,0.00
2013-4-15,74,72,71,63,62,62,74,70,65,29.72,29.70,14,6,22,0.00
2013-4-17,84,78,78,69,68,65,74,70,57,29.74,29.71,25,12,27,0.00
2013-4-18,78,59,48,69,47,33,77,64,51,30.23,29.64,27,5,27,1.33
2013-4-19,62,54,44,38,32,27,62,45,33,30.36,30.21,27,2,27,0.00
2013-4-20,72,61,52,42,38,34,50,42,32,30.29,30.10,21,4,21,0.00
2013-4-21,73,66,56,51,46,38,58,49,40,30.30,30.15,23,3,23,0.00
2013-4-22,66,63,62,48,46,44,54,53,52,30.19,30.13,9,4,9,0.00
2013-4-25,68,68,68,47,47,47,47,47,47,30.37,30.37,0,0,0,0.00
2013-5-2,70,46,46,59,36,35,70,67,64,30.40,30.08,107,6,107,0.02
2013-5-3,65,53,43,36,33,31,67,49,29,30.38,30.10,22,4,22,0.00
2013-5-4,71,62,53,39,36,31,52,40,24,30.11,29.97,18,3,18,0.00
2013-5-5,60,54,51,40,38,37,59,55,46,30.23,30.10,13,3,14,0.00
2013-5-6,76,74,72,54,53,52,52,47,45,30.10,30.07,4,0,4,0.00
2013-5-7,84,76,66,58,54,50,59,47,38,30.15,30.01,12,3,33,0.00
2013-5-8,85,77,68,60,56,51,59,49,39,30.08,29.94,22,6,22,0.00
2013-5-9,78,72,70,65,60,56,79,65,51,30.06,29.95,15,5,18,0.61
2013-5-12,78,72,64,52,45,42,53,38,29,30.35,30.22,109,5,109,0.00
2013-5-13,86,76,64,54,49,42,48,40,32,30.31,30.18,16,4,16,0.00
2013-5-14,86,78,68,61,56,50,62,48,36,30.24,30.06,41,6,41,0.00
2013-5-15,78,75,72,66,63,59,78,67,54,30.13,29.94,50,6,50,0.29
2013-5-16,79,78,76,69,69,68,76,72,71,29.88,29.83,0,0,0,0.00
2013-5-17,89,83,76,72,71,68,76,67,58,29.91,29.88,0,0,0,0.00
2013-5-18,89,84,75,72,70,67,75,63,56,29.98,29.84,114,9,114,0.00
2013-5-19,89,80,75,71,67,64,72,64,53,29.92,29.75,114,7,114,0.00
2013-5-21,68,68,68,61,61,61,78,78,78,29.90,29.90,114,114,114,0.00
2013-5-22,83,78,64,64,62,57,79,58,49,30.03,29.92,10,4,10,0.00
2013-5-23,85,79,72,72,68,62,82,69,62,30.15,29.96,15,5,15,0.00
2013-5-24,86,80,74,72,69,64,74,68,59,30.28,30.08,17,4,17,0.27
2013-5-25,74,73,72,66,65,65,77,76,75,30.25,30.18,20,2,20,0.02
2013-5-26,86,83,82,71,71,69,70,66,61,30.12,30.03,114,64,114,0.00
2013-5-27,84,81,76,69,68,66,74,65,62,30.06,29.99,17,7,20,0.00
2013-5-30,86,85,76,73,72,70,80,66,65,29.86,29.79,57,27,57,0.88
2013-5-31,82,80,79,72,71,70,76,75,71,29.90,29.84,114,114,114,0.34
2013-6-2,82,80,76,61,57,52,55,45,37,30.14,30.02,86,30,86,0.00
2013-6-3,88,82,70,65,61,57,67,50,39,30.08,29.92,86,22,86,0.00
2013-6-4,91,82,73,70,66,61,69,58,49,30.09,29.87,0,0,0,0.00
2013-6-5,90,84,77,72,69,66,71,61,50,30.02,29.83,0,0,0,0.00
2013-6-6,84,76,72,70,67,64,81,72,60,30.02,29.88,0,0,0,0.85
2013-6-7,83,75,68,64,60,58,74,60,44,30.09,29.97,0,0,0,0.00
2013-6-8,88,80,70,65,61,57,65,53,44,30.02,29.87,0,0,0,0.00
2013-6-9,86,80,72,69,66,61,82,65,53,30.03,29.93,0,0,0,0.66
2013-6-10,95,85,75,72,68,65,74,58,39,30.04,29.97,0,0,0,0.00
2013-6-11,94,86,79,73,70,66,74,59,49,30.11,30.00,0,0,0,0.20
2013-6-12,93,87,79,73,71,69,75,60,49,30.15,30.00,0,0,0,0.18
2013-6-13,96,88,80,73,70,67,69,56,43,30.13,29.97,0,0,0,0.35
2013-6-14,94,88,82,72,70,67,64,56,48,30.07,29.96,0,0,0,1.92
2013-6-15,89,84,78,75,71,66,71,64,55,30.08,29.96,0,0,0,0.41
2013-6-16,94,85,79,74,71,69,75,65,47,30.09,29.96,0,0,0,0.04
2013-6-17,86,85,83,76,74,72,72,70,69,30.00,29.94,0,0,0,0.00
2013-6-18,83,79,75,73,66,-100,75,71,71,30.04,29.96,0,-19,0,0.00
2013-6-23,86,83,82,-100,-100,-100,0,0,100,0.00,40.00,0,-999,0,0.00
2013-6-24,103,88,72,69,-22,-100,55,23,45,30.03,29.97,0,-537,0,0.00
2013-6-25,96,88,77,72,68,-100,71,55,41,30.08,29.90,0,-5,0,0.00
2013-6-26,96,88,80,74,70,65,70,55,46,30.05,29.92,0,0,0,0.00
2013-6-27,97,89,82,75,70,66,68,54,42,30.10,29.94,0,0,0,0.00
2013-6-28,99,90,82,73,68,64,60,49,40,30.03,29.89,0,0,0,0.00
2013-6-29,96,90,82,68,64,61,59,44,33,29.98,29.87,0,0,0,0.00
2013-6-30,90,85,79,64,60,57,55,44,36,30.02,29.89,0,0,0,0.00
2013-7-1,87,81,74,61,59,57,58,48,41,30.10,30.01,0,0,0,0.02
2013-7-2,88,81,73,58,56,54,53,43,33,30.16,30.07,0,0,0,0.00
2013-7-3,91,83,73,62,57,55,58,43,32,30.14,30.02,0,0,0,0.00
2013-7-4,94,85,76,66,62,56,58,47,33,30.10,29.97,0,0,0,0.00
2013-7-5,95,86,74,68,62,-100,59,46,35,30.09,29.93,86,-4,86,0.12
2013-7-6,96,86,73,69,59,-100,59,47,35,30.04,29.93,4,0,8,0.00
2013-7-7,98,88,73,72,66,-100,66,51,40,30.09,29.99,5,0,10,0.00
2013-7-8,101,86,76,73,66,-100,69,58,46,30.17,30.06,3,0,11,0.00
2013-7-9,105,89,74,71,66,-100,69,50,36,30.20,30.04,3,0,10,0.00
2013-7-10,100,91,79,72,67,-100,65,49,37,30.14,29.97,3,0,10,0.00
2013-7-11,106,89,82,75,68,-100,61,52,42,30.05,29.97,2,0,5,0.02
2013-7-12,85,84,84,69,69,69,62,60,59,30.02,30.00,0,0,0,0.00
2013-7-14,75,75,66,67,66,-100,77,75,74,30.10,29.99,0,0,1,0.02
2013-7-15,76,74,64,69,62,-100,80,76,74,30.17,30.04,3,0,7,0.14
2013-7-16,88,79,68,73,68,-100,81,74,58,30.30,30.15,4,0,10,0.59
2013-7-17,91,82,67,74,69,-100,83,70,56,30.30,30.21,4,0,11,0.04
2013-7-18,101,84,68,74,69,-100,76,63,54,30.26,30.08,3,0,6,0.00
2013-7-19,101,83,73,73,69,-100,73,66,55,30.12,30.00,4,0,7,0.00
2013-7-20,103,83,69,74,68,-100,78,66,51,30.06,29.92,4,0,8,0.00
2013-7-21,100,86,70,75,70,-100,76,62,49,30.02,29.92,2,0,6,0.00
2013-7-22,102,87,73,75,70,-100,77,61,46,30.06,29.93,4,0,10,0.00
2013-7-23,101,89,76,77,70,-100,73,59,43,30.05,29.89,3,0,10,0.00
2013-7-24,94,86,73,73,68,-100,69,58,47,30.14,29.94,4,0,13,0.00
2013-7-25,101,86,71,75,70,-100,69,61,51,30.13,30.05,4,0,9,0.00
2013-7-26,99,84,74,74,55,-100,77,60,57,30.10,29.98,3,0,10,0.02
2013-7-27,95,80,69,-100,-100,-100,0,0,100,0.00,40.00,4,2,9,0.00
2013-7-28,100,82,64,-100,-100,-100,0,0,100,0.00,40.00,6,2,10,0.00
2013-7-29,97,84,73,-100,-100,-100,0,0,100,0.00,40.00,5,3,14,0.00
2013-7-30,103,87,74,-100,-100,-100,0,0,100,0.00,40.00,4,2,12,0.00
2013-7-31,108,90,74,-100,-100,-100,0,0,100,0.00,40.00,3,1,9,0.00
2013-8-1,110,91,75,-100,-100,-100,0,0,100,0.00,40.00,5,1,14,0.00
2013-8-2,107,91,76,-100,-100,-100,0,0,100,0.00,40.00,4,2,10,0.00
2013-8-3,107,91,76,-100,-100,-100,0,0,100,0.00,40.00,4,2,10,0.00
2013-8-4,106,90,76,-100,-100,-100,0,0,100,0.00,40.00,4,2,10,0.00
2013-8-5,109,92,77,-100,-100,-100,0,0,100,0.00,40.00,4,2,10,0.00
2013-8-6,110,93,76,-100,-100,-100,0,0,100,0.00,40.00,4,2,12,0.00
2013-8-7,111,91,76,-100,-100,-100,0,0,100,0.00,40.00,4,2,13,0.00
2013-8-8,106,91,76,-100,-100,-100,0,0,100,0.00,40.00,4,2,10,0.00
2013-8-9,110,91,76,-100,-100,-100,0,0,100,0.00,40.00,3,2,9,0.00
2013-8-10,106,89,72,-100,-100,-100,0,0,100,0.00,40.00,2,1,9,0.00
2013-8-11,110,89,74,-100,-100,-100,0,0,100,0.00,40.00,8,1,14,0.00
2013-8-12,106,89,74,-100,-100,-100,0,0,100,0.00,40.00,3,2,9,0.00
2013-8-13,106,84,69,-100,-100,-100,0,0,100,0.00,40.00,8,1,23,0.00
2013-8-14,73,73,72,-100,-100,-100,0,0,100,0.00,40.00,2,1,4,0.00
2013-8-20,104,92,80,-100,-100,-100,0,0,100,0.00,40.00,3,2,8,0.00
2013-8-21,100,85,71,-100,-100,-100,0,0,100,0.00,40.00,4,2,10,0.00
2013-8-22,105,88,72,-100,-100,-100,0,0,100,0.00,40.00,4,1,9,0.00
2013-8-23,106,88,74,-100,-100,-100,0,0,100,0.00,40.00,5,2,9,0.00
2013-8-24,104,88,75,-100,-100,-100,0,0,100,0.00,40.00,7,2,13,0.00
2013-8-25,99,87,72,-100,-100,-100,0,0,100,0.00,40.00,7,3,14,0.00
2013-8-26,98,85,72,68,-98,-100,42,1,42,30.16,30.16,7,3,14,0.00
2013-8-27,101,82,71,-100,-100,-100,0,0,100,0.00,40.00,5,2,11,0.00
2013-8-28,105,86,69,-100,-100,-100,0,0,100,0.00,40.00,3,1,8,0.00
2013-8-29,110,89,71,-100,-100,-100,0,0,100,0.00,40.00,3,0,7,0.00
2013-8-30,110,91,75,-100,-100,-100,0,0,100,0.00,40.00,3,1,8,0.00
2013-8-31,112,92,75,-100,-100,-100,0,0,100,0.00,40.00,4,2,8,0.00
2013-9-1,110,92,72,-100,-100,-100,0,0,100,0.00,40.00,3,2,11,0.00
2013-9-2,99,81,71,-100,-100,-100,0,0,100,0.00,40.00,4,1,9,0.00
2013-9-3,106,86,71,-100,-100,-100,0,0,100,0.00,40.00,2,0,6,0.00
2013-9-4,107,88,72,-100,-100,-100,0,0,100,0.00,40.00,6,2,10,0.00
2013-9-5,106,88,73,-100,-100,-100,0,0,100,0.00,40.00,4,2,7,0.00
2013-9-6,107,88,72,-100,-100,-100,0,0,100,0.00,40.00,4,2,12,0.00
2013-9-7,106,87,73,-100,-100,-100,0,0,100,0.00,40.00,5,2,13,0.00
2013-9-8,102,85,68,-100,-100,-100,0,0,100,0.00,40.00,5,2,11,0.00
2013-9-9,100,84,69,-100,-100,-100,0,0,100,0.00,40.00,5,2,12,0.00
2013-9-10,98,82,71,-100,-100,-100,0,0,100,0.00,40.00,6,2,14,0.00
2013-9-11,78,75,72,-100,-100,-100,0,0,100,0.00,40.00,2,1,4,0.00
2013-9-13,106,90,79,-100,-100,-100,0,0,100,0.00,40.00,4,2,9,0.00
2013-9-14,98,86,76,-100,-100,-100,0,0,100,0.00,40.00,5,3,12,0.00
2013-9-15,101,84,70,-100,-100,-100,0,0,100,0.00,40.00,4,2,9,0.00
2013-9-16,104,86,72,-100,-100,-100,0,0,100,0.00,40.00,4,1,9,0.00
2013-9-17,100,85,74,-100,-100,-100,0,0,100,0.00,40.00,4,1,8,0.00
2013-9-18,100,86,75,-100,-100,-100,0,0,100,0.00,40.00,5,2,12,0.00
2013-9-19,92,80,70,-100,-100,-100,0,0,100,0.00,40.00,7,1,17,0.00
2013-9-20,72,69,66,-100,-100,-100,0,0,100,0.00,40.00,2,1,10,0.00
2013-9-21,91,71,57,-100,-100,-100,0,0,100,0.00,40.00,4,1,10,0.00
2013-9-22,91,69,52,-100,-100,-100,0,0,100,0.00,40.00,4,1,9,0.00
2013-9-23,94,72,54,-100,-100,-100,0,0,100,0.00,40.00,5,2,12,0.00
2013-9-24,102,79,60,-100,-100,-100,0,0,100,0.00,40.00,2,1,6,0.00
2013-9-25,105,78,55,-100,-100,-100,0,0,100,0.00,40.00,3,1,6,0.00
2013-9-26,102,81,64,-100,-100,-100,0,0,100,0.00,40.00,6,2,128,0.00
2013-9-27,92,77,64,-100,-100,-100,0,0,100,0.00,40.00,6,3,13,0.00
2013-9-28,91,73,62,-100,-100,-100,0,0,100,0.00,40.00,6,2,16,0.00
2013-9-29,91,76,60,60,23,-100,52,36,41,30.05,29.99,2,0,5,0.00
2013-9-30,95,77,55,64,56,-100,63,51,40,30.01,29.89,3,0,7,0.00
2013-10-1,96,81,66,71,65,-100,76,62,48,30.03,29.92,4,0,10,0.00
2013-10-2,94,82,70,72,69,-100,77,65,55,30.07,29.94,5,0,11,0.00
2013-10-3,93,83,70,73,69,-100,77,66,53,30.02,29.89,5,0,12,0.00
2013-10-4,94,80,70,71,68,-100,77,71,61,30.00,29.94,4,0,12,0.00
2013-10-5,81,59,56,50,47,-100,76,67,55,30.18,30.08,2,0,0,0.00
2013-10-6,79,63,45,50,43,-100,78,53,30,30.20,30.10,2,0,0,0.00
2013-10-7,93,70,45,49,43,-100,61,41,32,30.23,30.13,2,0,0,0.00
2013-10-8,84,71,47,52,47,-100,56,46,37,30.20,30.07,2,0,0,0.00
2013-10-9,90,73,53,59,53,-100,63,51,41,30.16,30.06,2,0,0,0.00
2013-10-10,83,76,59,63,58,-100,67,56,46,30.14,29.97,2,0,0,0.00
2013-10-11,85,78,71,70,66,59,74,66,58,30.04,29.90,0,0,0,0.00
2013-10-12,101,81,73,74,70,-100,78,69,60,30.15,29.96,2,0,0,0.49
2013-10-13,77,74,64,68,64,-100,79,74,68,30.28,30.13,2,0,0,0.37
2013-10-14,75,72,64,71,65,-100,87,83,77,30.21,30.01,2,0,0,30.14
2013-10-15,77,69,50,71,62,-100,87,83,78,30.04,29.90,2,0,0,15.89
2013-10-16,64,59,55,53,51,48,85,75,60,30.05,29.95,0,0,0,29.96
2013-10-17,71,63,55,52,48,45,69,60,49,30.08,29.94,0,0,0,3.80
2013-10-18,69,64,58,55,52,48,71,64,57,30.04,29.85,0,0,0,6.81
2013-10-19,64,56,46,48,41,37,72,59,44,30.16,30.02,0,0,0,15.52
2013-10-20,59,56,53,44,42,41,62,59,55,30.03,29.98,0,0,0,7.16
2013-10-28,68,67,59,-100,-100,-100,0,0,100,0.00,40.00,5,4,11,0.00
2013-10-29,73,68,65,-100,-100,-100,0,0,100,0.00,40.00,6,4,14,0.00
2013-10-30,69,65,61,-100,-100,-100,0,0,100,0.00,40.00,9,4,22,0.00
2013-10-31,82,66,47,-100,-100,-100,0,0,100,0.00,40.00,6,2,12,0.00
2013-11-1,84,61,43,-100,-100,-100,0,0,100,0.00,40.00,5,2,12,0.00
2013-11-2,74,57,42,-100,-100,-100,0,0,100,0.00,40.00,4,2,9,0.00
2013-11-3,72,53,37,-100,-100,-100,0,0,100,0.00,40.00,7,3,16,0.00
2013-11-4,56,53,48,-100,-100,-100,0,0,100,0.00,40.00,6,3,13,0.00
2013-11-5,65,60,56,-100,-100,-100,0,0,100,0.00,40.00,5,3,14,0.00
2013-11-6,66,52,40,-100,-100,-100,0,0,100,0.00,40.00,5,2,10,0.00
2013-11-7,74,50,32,-100,-100,-100,0,0,100,0.00,40.00,2,0,7,0.00
2013-11-8,75,53,36,-100,-100,-100,0,0,100,0.00,40.00,5,1,12,0.00
2013-11-9,71,57,51,-100,-100,-100,0,0,100,0.00,40.00,5,2,12,0.00
2013-11-10,72,54,44,-100,-100,-100,0,0,100,0.00,40.00,4,1,7,0.00
2013-11-11,86,58,41,-100,-100,-100,0,0,100,0.00,40.00,3,0,6,0.00
2013-11-12,56,52,49,-100,-100,-100,0,0,100,0.00,40.00,2,1,5,0.00
2013-11-15,70,61,58,-100,-100,-100,0,0,100,0.00,40.00,4,3,11,0.00
2013-11-16,74,65,56,-100,-100,-100,0,0,100,0.00,40.00,6,4,17,0.00
2013-11-17,94,75,59,-100,-100,-100,0,0,100,0.00,40.00,5,2,13,0.00
2013-11-18,77,61,50,-100,-100,-100,0,0,100,0.00,40.00,6,2,12,0.00
2013-11-19,73,58,51,-100,-100,-100,0,0,100,0.00,40.00,8,4,15,0.00
2013-11-20,65,53,41,-100,-100,-100,0,0,100,0.00,40.00,7,3,14,0.00
2013-11-21,69,60,40,-100,-100,-100,0,0,100,0.00,40.00,8,3,12,0.00
2013-11-22,40,34,32,-100,-100,-100,0,0,100,0.00,40.00,7,4,14,0.00
2013-11-23,38,34,32,-100,-100,-100,0,0,100,0.00,40.00,4,2,9,0.00
2013-11-24,33,32,28,-100,-100,-100,0,0,100,0.00,40.00,4,2,10,0.00
2013-11-25,34,31,28,-100,-100,-100,0,0,100,0.00,40.00,4,1,10,0.00
2013-11-26,54,39,32,-100,-100,-100,0,0,100,0.00,40.00,7,4,15,0.00
2013-11-27,54,35,25,-100,-100,-100,0,0,100,0.00,40.00,4,2,9,0.00
2013-11-28,61,37,23,-100,-100,-100,0,0,100,0.00,40.00,4,1,9,0.00
2013-11-29,66,43,23,-100,-100,-100,0,0,100,0.00,40.00,5,2,9,0.00
2013-11-30,72,50,35,-100,-100,-100,0,0,100,0.00,40.00,5,2,13,0.00
2013-12-1,71,56,46,-100,-100,-100,0,0,100,0.00,40.00,4,2,13,0.00
2013-12-2,77,52,39,-100,-100,-100,0,0,100,0.00,40.00,4,1,7,0.00
2013-12-3,82,55,36,-100,-100,-100,0,0,100,0.00,40.00,3,1,7,0.00
2013-12-4,87,61,46,-100,-100,-100,0,0,100,0.00,40.00,4,2,10,0.00
2013-12-5,46,32,26,-100,-100,-100,0,0,100,0.00,40.00,1,1,0,0.00
2013-12-6,30,26,19,-100,-100,-100,0,0,100,0.00,40.00,1,0,0,0.00
2013-12-7,24,20,16,-100,-100,-100,0,0,100,0.00,40.00,3,1,5,0.00
2013-12-8,32,27,23,-100,-100,-100,0,0,100,0.00,40.00,2,0,4,0.00
2013-12-9,30,28,23,-100,-100,-100,0,0,100,0.00,40.00,5,2,8,0.00
2013-12-10,46,27,16,-100,-100,-100,0,0,100,0.00,40.00,4,1,7,0.00
2013-12-11,50,32,19,-100,-100,-100,0,0,100,0.00,40.00,4,1,7,0.00
2013-12-12,29,26,23,-100,-100,-100,0,0,100,0.00,40.00,2,1,5,0.00
2013-12-13,42,39,31,-100,-100,-100,0,0,100,0.00,40.00,6,3,12,0.00
2013-12-14,43,38,30,-100,-100,-100,0,0,100,0.00,40.00,8,4,18,0.00
2013-12-15,66,43,25,-100,-100,-100,0,0,100,0.00,40.00,4,2,8,0.00
2013-12-16,74,49,32,-100,-100,-100,0,0,100,0.00,40.00,5,2,10,0.00
2013-12-17,82,51,30,-100,-100,-100,0,0,100,0.00,40.00,3,1,6,0.00
2013-12-18,74,51,33,-100,-100,-100,0,0,100,0.00,40.00,7,2,17,0.00
2013-12-19,69,58,48,-100,-100,-100,0,0,100,0.00,40.00,8,4,23,0.00
2013-12-20,68,54,32,-100,-100,-100,0,0,100,0.00,40.00,9,4,16,0.00
2013-12-21,51,40,32,-100,-100,-100,0,0,100,0.00,40.00,6,2,10,0.00
2013-12-22,43,34,26,-100,-100,-100,0,0,100,0.00,40.00,10,5,16,0.00
2013-12-23,56,33,19,-100,-100,-100,0,0,100,0.00,40.00,4,1,9,0.00
2013-12-24,55,36,19,-100,-100,-100,0,0,100,0.00,40.00,6,3,14,0.00
2013-12-25,67,42,28,-100,-100,-100,0,0,100,0.00,40.00,7,3,11,0.00
2013-12-26,62,40,27,-100,-100,-100,0,0,100,0.00,40.00,4,1,7,0.00
2013-12-27,66,44,28,-100,-100,-100,0,0,100,0.00,40.00,4,1,8,0.00
2013-12-28,66,47,30,-100,-100,-100,0,0,100,0.00,40.00,6,2,11,0.00
2013-12-29,49,36,28,-100,-100,-100,0,0,100,0.00,40.00,9,4,17,0.00
2013-12-30,50,34,25,-100,-100,-100,0,0,100,0.00,40.00,6,3,12,0.00
2013-12-31,60,40,22,-100,-100,-100,0,0,100,0.00,40.00,5,2,12,0.00
2014-1-1,68,47,30,-100,-100,-100,0,0,100,0.00,40.00,12,5,23,0.00
2014-1-2,45,30,21,-100,-100,-100,0,0,100,0.00,40.00,11,5,18,0.00